createdAt,value
2023-01-01T00:04:17.494Z,19.65
2023-01-01T00:09:34.345Z,16.10
2023-01-01T00:14:34.483Z,17.70
2023-01-01T00:19:33.256Z,15.65
2023-01-01T00:24:32.137Z,25.08
2023-01-01T00:29:30.884Z,19.38
2023-01-01T00:34:31.068Z,17.30
2023-01-01T00:39:29.832Z,15.57
2023-01-01T00:44:28.597Z,13.15
2023-01-01T00:49:27.968Z,13.27
2023-01-01T00:54:28.154Z,13.85
2023-01-01T00:59:28.882Z,12.88
2023-01-01T01:04:27.975Z,13.40
2023-01-01T01:09:28.135Z,14.60
2023-01-01T01:14:26.899Z,12.80
2023-01-01T01:19:26.839Z,12.70
2023-01-01T01:24:25.588Z,13.32
2023-01-01T01:29:25.864Z,12.40
2023-01-01T01:34:28.099Z,13.63
2023-01-01T01:39:27.353Z,12.90
2023-01-01T01:45:02.550Z,12.80
2023-01-01T01:50:08.218Z,14.65
2023-01-01T01:55:09.462Z,13.32
2023-01-01T02:00:11.645Z,12.63
2023-01-01T02:05:13.084Z,11.20
2023-01-01T02:10:12.051Z,11.70
2023-01-01T02:15:11.330Z,13.95
2023-01-01T02:20:24.189Z,14.50
2023-01-01T02:25:37.028Z,11.70
2023-01-01T02:30:40.463Z,11.90
2023-01-01T02:40:46.536Z,11.77
2023-01-01T02:45:46.729Z,11.20
2023-01-01T02:50:45.894Z,11.82
2023-01-01T02:55:55.913Z,14.13
2023-01-01T03:01:05.139Z,14.48
2023-01-01T03:06:27.251Z,14.23
2023-01-01T03:11:33.826Z,14.18
2023-01-01T03:16:39.695Z,12.77
2023-01-01T03:21:43.717Z,13.00
2023-01-01T03:26:44.940Z,13.68
2023-01-01T03:31:47.332Z,12.60
2023-01-01T03:36:50.464Z,14.30
2023-01-01T03:41:54.298Z,12.60
2023-01-01T03:46:55.150Z,13.60
2023-01-01T03:52:20.559Z,12.60
2023-01-01T03:57:24.878Z,12.40
2023-01-01T04:02:33.643Z,11.32
2023-01-01T04:07:32.820Z,11.90
2023-01-01T04:12:32.119Z,11.27
2023-01-01T04:17:32.236Z,13.25
2023-01-01T04:22:31.019Z,14.15
2023-01-01T04:27:29.973Z,13.23
2023-01-01T04:32:28.866Z,13.73
2023-01-01T04:37:29.767Z,14.90
2023-01-01T04:42:28.510Z,12.43
2023-01-01T04:47:28.082Z,10.80
2023-01-01T04:52:26.864Z,11.50
2023-01-01T04:57:26.997Z,11.35
2023-01-01T05:02:26.008Z,9.88
2023-01-01T05:07:24.800Z,11.23
2023-01-01T05:12:23.551Z,9.85
2023-01-01T05:17:23.718Z,18.55
2023-01-01T05:22:22.535Z,11.63
2023-01-01T05:27:21.389Z,29.38
2023-01-01T05:32:20.241Z,16.55
2023-01-01T05:37:20.451Z,8.75
2023-01-01T05:42:20.209Z,48.20
2023-01-01T05:47:19.102Z,19.92
2023-01-01T05:52:21.595Z,12.98
2023-01-01T05:57:26.503Z,17.30
2023-01-01T06:02:25.444Z,16.80
2023-01-01T06:07:24.502Z,15.15
2023-01-01T06:12:23.340Z,12.13
2023-01-01T06:17:23.529Z,12.65
2023-01-01T06:22:22.274Z,16.42
2023-01-01T06:27:21.016Z,17.02
2023-01-01T06:32:19.710Z,16.27
2023-01-01T06:37:21.586Z,12.90
2023-01-01T06:42:20.441Z,13.68
2023-01-01T06:47:19.248Z,14.02
2023-01-01T06:52:21.455Z,21.85
2023-01-01T06:57:20.321Z,16.13
2023-01-01T07:02:19.199Z,14.75
2023-01-01T07:07:18.148Z,27.88
2023-01-01T07:12:18.724Z,34.53
2023-01-01T07:17:17.812Z,15.07
2023-01-01T07:22:18.663Z,14.70
2023-01-01T07:27:18.975Z,14.68
2023-01-01T07:32:17.761Z,13.73
2023-01-01T07:37:16.571Z,14.68
2023-01-01T07:42:15.432Z,16.83
2023-01-01T07:47:25.295Z,11.38
2023-01-01T07:52:24.121Z,9.63
2023-01-01T07:57:22.949Z,11.32
2023-01-01T08:02:23.292Z,10.38
2023-01-01T08:07:22.200Z,10.25
2023-01-01T08:12:21.011Z,10.25
2023-01-01T08:17:20.035Z,9.98
2023-01-01T08:22:20.384Z,10.52
2023-01-01T08:27:19.437Z,11.93
2023-01-01T08:32:18.287Z,12.80
2023-01-01T08:37:17.140Z,9.40
2023-01-01T08:42:17.271Z,11.88
2023-01-01T08:47:20.795Z,10.80
2023-01-01T08:52:20.378Z,7.70
2023-01-01T08:57:20.510Z,7.45
2023-01-01T09:02:19.332Z,7.18
2023-01-01T09:07:18.326Z,7.38
2023-01-01T09:12:17.997Z,6.22
2023-01-01T09:17:18.231Z,6.82
2023-01-01T09:22:16.990Z,6.88
2023-01-01T09:27:15.888Z,5.72
2023-01-01T09:32:14.712Z,6.03
2023-01-01T09:37:14.846Z,6.22
2023-01-01T09:42:28.545Z,5.32
2023-01-01T09:47:31.634Z,5.78
2023-01-01T09:52:41.199Z,5.90
2023-01-01T09:57:40.832Z,5.95
2023-01-01T10:02:53.620Z,6.75
2023-01-01T10:08:04.488Z,8.25
2023-01-01T10:13:16.814Z,6.60
2023-01-01T10:18:21.173Z,9.05
2023-01-01T10:23:25.686Z,16.88
2023-01-01T10:28:31.635Z,6.13
2023-01-01T10:33:30.489Z,5.03
2023-01-01T10:38:30.783Z,4.90
2023-01-01T10:43:29.551Z,4.68
2023-01-01T10:48:30.773Z,5.65
2023-01-01T10:53:33.344Z,5.07
2023-01-01T11:04:01.489Z,4.35
2023-01-01T11:09:04.566Z,4.22
2023-01-01T11:14:06.404Z,3.97
2023-01-01T11:19:07.360Z,4.60
2023-01-01T11:24:20.426Z,3.67
2023-01-01T11:29:25.017Z,3.60
2023-01-01T11:34:37.499Z,3.40
2023-01-01T11:39:39.129Z,3.20
2023-01-01T11:44:42.262Z,4.40
2023-01-01T11:49:41.093Z,3.63
2023-01-01T11:54:44.587Z,3.08
2023-01-01T11:59:48.759Z,3.15
2023-01-01T12:04:51.729Z,3.70
2023-01-01T12:10:01.607Z,3.28
2023-01-01T12:15:05.558Z,3.53
2023-01-01T12:20:12.347Z,3.80
2023-01-01T12:25:17.567Z,5.50
2023-01-01T12:30:22.593Z,4.60
2023-01-01T12:35:32.157Z,4.43
2023-01-01T12:40:48.289Z,3.63
2023-01-01T12:46:25.788Z,4.13
2023-01-01T12:51:34.181Z,3.75
2023-01-01T12:56:39.765Z,6.93
2023-01-01T13:01:40.453Z,4.00
2023-01-01T13:06:43.978Z,5.20
2023-01-01T13:11:48.811Z,3.75
2023-01-01T13:16:55.188Z,4.00
2023-01-01T13:21:54.178Z,3.47
2023-01-01T13:26:55.085Z,4.32
2023-01-01T13:32:08.372Z,5.47
2023-01-01T13:37:28.304Z,6.10
2023-01-01T13:42:43.048Z,6.05
2023-01-01T13:48:01.637Z,4.88
2023-01-01T13:53:17.286Z,5.57
2023-01-01T13:58:55.933Z,5.40
2023-01-01T14:03:57.525Z,5.88
2023-01-01T14:09:03.906Z,6.03
2023-01-01T14:14:04.158Z,6.20
2023-01-01T14:19:03.775Z,6.97
2023-01-01T14:24:05.418Z,10.80
2023-01-01T14:29:08.935Z,10.95
2023-01-01T14:34:15.430Z,12.35
2023-01-01T14:39:28.074Z,16.83
2023-01-01T14:44:34.660Z,26.42
2023-01-01T14:49:36.023Z,28.85
2023-01-01T14:54:38.299Z,22.87
2023-01-01T14:59:47.369Z,16.23
2023-01-01T15:04:46.132Z,21.42
2023-01-01T15:09:44.995Z,26.50
2023-01-01T15:14:46.532Z,25.33
2023-01-01T15:19:48.106Z,22.70
2023-01-01T15:24:50.362Z,25.98
2023-01-01T15:29:51.882Z,30.88
2023-01-01T15:34:55.254Z,36.35
2023-01-01T15:39:57.596Z,41.35
2023-01-01T15:44:57.727Z,45.45
2023-01-01T15:50:09.101Z,46.95
2023-01-01T15:55:08.426Z,44.33
2023-01-01T16:00:20.244Z,36.72
2023-01-01T16:05:22.883Z,42.30
2023-01-01T16:10:21.740Z,40.95
2023-01-01T16:15:21.963Z,38.13
2023-01-01T16:20:22.803Z,39.65
2023-01-01T16:25:23.532Z,40.13
2023-01-01T16:30:29.195Z,34.95
2023-01-01T16:35:27.983Z,36.33
2023-01-01T16:40:26.820Z,96.82
2023-01-01T16:45:27.041Z,108.45
2023-01-01T16:50:27.186Z,140.70
2023-01-01T16:55:26.871Z,117.63
2023-01-01T17:00:27.353Z,106.63
2023-01-01T17:05:26.212Z,76.63
2023-01-01T17:10:25.017Z,58.28
2023-01-01T17:15:24.585Z,47.35
2023-01-01T17:20:24.997Z,37.47
2023-01-01T17:25:24.875Z,39.30
2023-01-01T17:30:23.617Z,40.05
2023-01-01T17:35:22.483Z,49.25
2023-01-01T17:40:22.929Z,44.72
2023-01-01T17:45:22.608Z,37.90
2023-01-01T17:50:23.402Z,37.42
2023-01-01T17:55:23.675Z,33.55
2023-01-01T18:00:22.653Z,24.77
2023-01-01T18:05:23.494Z,19.48
2023-01-01T18:10:23.638Z,22.60
2023-01-01T18:15:22.773Z,27.05
2023-01-01T18:20:21.677Z,25.65
2023-01-01T18:25:21.638Z,38.95
2023-01-01T18:30:21.970Z,43.22
2023-01-01T18:35:20.912Z,36.78
2023-01-01T18:40:19.790Z,36.22
2023-01-01T18:45:22.141Z,51.30
2023-01-01T18:50:25.885Z,32.53
2023-01-01T18:55:28.184Z,95.60
2023-01-01T19:00:31.326Z,83.95
2023-01-01T19:10:37.192Z,39.85
2023-01-01T19:15:37.651Z,38.95
2023-01-01T19:20:36.481Z,27.30
2023-01-01T19:25:40.230Z,28.60
2023-01-01T19:30:40.556Z,29.42
2023-01-01T19:35:39.483Z,29.55
2023-01-01T19:40:38.282Z,28.67
2023-01-01T19:45:37.249Z,20.65
2023-01-01T19:50:40.771Z,17.60
2023-01-01T19:55:47.416Z,16.95
2023-01-01T20:00:48.924Z,19.95
2023-01-01T20:05:56.981Z,15.77
2023-01-01T20:10:58.374Z,17.98
2023-01-01T20:16:15.970Z,20.48
2023-01-01T20:21:42.627Z,18.75
2023-01-01T20:26:45.725Z,17.38
2023-01-01T20:31:51.317Z,19.30
2023-01-01T20:37:11.398Z,16.63
2023-01-01T20:42:12.502Z,12.48
2023-01-01T20:47:11.490Z,13.35
2023-01-01T20:52:13.344Z,15.38
2023-01-01T20:57:13.690Z,44.03
2023-01-01T21:02:13.685Z,25.42
2023-01-01T21:07:14.169Z,19.73
2023-01-01T21:12:13.384Z,20.48
2023-01-01T21:17:22.337Z,13.23
2023-01-01T21:22:22.779Z,13.63
2023-01-01T21:27:25.615Z,17.67
2023-01-01T21:32:26.245Z,15.20
2023-01-01T21:37:47.441Z,20.30
2023-01-01T21:42:46.308Z,13.02
2023-01-01T21:47:45.380Z,13.02
2023-01-01T21:52:47.628Z,12.43
2023-01-01T21:57:46.786Z,13.70
2023-01-01T22:02:48.329Z,12.13
2023-01-01T22:08:04.111Z,13.23
2023-01-01T22:13:03.269Z,21.70
2023-01-01T22:18:18.035Z,16.35
2023-01-01T22:23:43.325Z,13.18
2023-01-01T22:28:44.946Z,12.88
2023-01-01T22:33:47.291Z,19.10
2023-01-01T22:38:47.517Z,13.35
2023-01-01T22:43:49.539Z,14.00
2023-01-01T22:48:54.210Z,15.70
2023-01-01T22:53:58.181Z,12.45
2023-01-01T22:58:58.504Z,12.35
2023-01-01T23:03:57.425Z,12.38
2023-01-01T23:08:58.265Z,11.52
2023-01-01T23:14:14.376Z,10.18
2023-01-01T23:19:13.214Z,9.43
2023-01-01T23:24:16.797Z,10.38
2023-01-01T23:29:17.092Z,8.57
2023-01-01T23:34:16.672Z,9.27
2023-01-01T23:39:16.936Z,12.00
2023-01-01T23:44:15.831Z,14.40
2023-01-01T23:49:15.203Z,10.40
2023-01-01T23:54:13.995Z,8.70
2023-01-01T23:59:15.521Z,9.07
